sensor_id;sensor_type;location;lat;lon;timestamp;P1;durP1;ratioP1;P2;durP2;ratioP2
22191;SDS011;11261;52.456;10.850;2023-02-15T00:00:05;17.30;;;9.60;;
22191;SDS011;11261;52.456;10.850;2023-02-15T00:02:36;19.00;;;9.70;;
22191;SDS011;11261;52.456;10.850;2023-02-15T00:05:05;16.65;;;8.88;;
22191;SDS011;11261;52.456;10.850;2023-02-15T00:07:34;17.65;;;7.68;;
22191;SDS011;11261;52.456;10.850;2023-02-15T00:10:02;17.08;;;9.07;;
22191;SDS011;11261;52.456;10.850;2023-02-15T00:12:32;14.80;;;7.15;;
22191;SDS011;11261;52.456;10.850;2023-02-15T00:15:02;16.00;;;7.40;;
22191;SDS011;11261;52.456;10.850;2023-02-15T00:17:30;13.70;;;7.68;;
22191;SDS011;11261;52.456;10.850;2023-02-15T00:19:58;15.68;;;7.70;;
22191;SDS011;11261;52.456;10.850;2023-02-15T00:22:26;10.73;;;6.43;;
22191;SDS011;11261;52.456;10.850;2023-02-15T00:24:55;16.83;;;8.68;;
22191;SDS011;11261;52.456;10.850;2023-02-15T00:27:23;15.38;;;8.20;;
22191;SDS011;11261;52.456;10.850;2023-02-15T00:29:51;15.90;;;8.85;;
22191;SDS011;11261;52.456;10.850;2023-02-15T00:32:21;21.77;;;10.18;;
22191;SDS011;11261;52.456;10.850;2023-02-15T00:34:49;16.80;;;9.07;;
22191;SDS011;11261;52.456;10.850;2023-02-15T00:37:18;21.80;;;9.35;;
22191;SDS011;11261;52.456;10.850;2023-02-15T00:39:46;14.30;;;8.32;;
22191;SDS011;11261;52.456;10.850;2023-02-15T00:42:14;13.55;;;8.30;;
22191;SDS011;11261;52.456;10.850;2023-02-15T00:44:42;17.95;;;9.77;;
22191;SDS011;11261;52.456;10.850;2023-02-15T00:47:10;20.17;;;10.48;;
22191;SDS011;11261;52.456;10.850;2023-02-15T00:49:40;14.07;;;8.38;;
22191;SDS011;11261;52.456;10.850;2023-02-15T00:52:09;15.55;;;8.35;;
22191;SDS011;11261;52.456;10.850;2023-02-15T00:54:37;13.23;;;7.78;;
22191;SDS011;11261;52.456;10.850;2023-02-15T00:57:06;15.13;;;7.65;;
22191;SDS011;11261;52.456;10.850;2023-02-15T00:59:34;14.32;;;7.50;;
22191;SDS011;11261;52.456;10.850;2023-02-15T01:02:02;16.70;;;8.18;;
22191;SDS011;11261;52.456;10.850;2023-02-15T01:04:30;18.83;;;9.45;;
22191;SDS011;11261;52.456;10.850;2023-02-15T01:07:00;20.40;;;9.70;;
22191;SDS011;11261;52.456;10.850;2023-02-15T01:09:29;20.75;;;9.77;;
22191;SDS011;11261;52.456;10.850;2023-02-15T01:11:58;13.35;;;7.78;;
22191;SDS011;11261;52.456;10.850;2023-02-15T01:14:26;18.15;;;9.10;;
22191;SDS011;11261;52.456;10.850;2023-02-15T01:16:54;19.98;;;10.45;;
22191;SDS011;11261;52.456;10.850;2023-02-15T01:19:22;22.40;;;10.57;;
22191;SDS011;11261;52.456;10.850;2023-02-15T01:21:51;19.63;;;9.10;;
22191;SDS011;11261;52.456;10.850;2023-02-15T01:24:20;13.60;;;7.13;;
22191;SDS011;11261;52.456;10.850;2023-02-15T01:26:48;18.70;;;8.73;;
22191;SDS011;11261;52.456;10.850;2023-02-15T01:29:17;18.65;;;9.95;;
22191;SDS011;11261;52.456;10.850;2023-02-15T01:31:45;16.00;;;8.52;;
22191;SDS011;11261;52.456;10.850;2023-02-15T01:34:14;15.18;;;8.40;;
22191;SDS011;11261;52.456;10.850;2023-02-15T01:36:42;18.87;;;8.97;;
22191;SDS011;11261;52.456;10.850;2023-02-15T01:39:10;15.30;;;7.57;;
22191;SDS011;11261;52.456;10.850;2023-02-15T01:41:40;18.90;;;9.50;;
22191;SDS011;11261;52.456;10.850;2023-02-15T01:47:14;18.38;;;9.23;;
22191;SDS011;11261;52.456;10.850;2023-02-15T01:49:45;16.87;;;8.93;;
22191;SDS011;11261;52.456;10.850;2023-02-15T01:52:15;13.83;;;7.60;;
22191;SDS011;11261;52.456;10.850;2023-02-15T01:54:45;16.88;;;8.88;;
22191;SDS011;11261;52.456;10.850;2023-02-15T01:57:18;15.52;;;8.43;;
22191;SDS011;11261;52.456;10.850;2023-02-15T01:59:49;27.43;;;11.37;;
22191;SDS011;11261;52.456;10.850;2023-02-15T02:02:21;22.65;;;9.07;;
22191;SDS011;11261;52.456;10.850;2023-02-15T02:04:52;21.63;;;10.50;;
22191;SDS011;11261;52.456;10.850;2023-02-15T02:07:26;23.65;;;10.93;;
22191;SDS011;11261;52.456;10.850;2023-02-15T02:09:56;14.80;;;6.57;;
22191;SDS011;11261;52.456;10.850;2023-02-15T02:12:25;17.27;;;9.40;;
22191;SDS011;11261;52.456;10.850;2023-02-15T02:18:43;15.57;;;8.13;;
22191;SDS011;11261;52.456;10.850;2023-02-15T02:21:21;16.80;;;7.37;;
22191;SDS011;11261;52.456;10.850;2023-02-15T02:30:13;14.10;;;7.90;;
22191;SDS011;11261;52.456;10.850;2023-02-15T02:33:09;12.57;;;7.23;;
22191;SDS011;11261;52.456;10.850;2023-02-15T02:35:44;13.53;;;7.37;;
22191;SDS011;11261;52.456;10.850;2023-02-15T02:38:23;15.93;;;7.67;;
22191;SDS011;11261;52.456;10.850;2023-02-15T02:41:01;16.47;;;8.47;;
22191;SDS011;11261;52.456;10.850;2023-02-15T02:43:40;20.80;;;10.20;;
22191;SDS011;11261;52.456;10.850;2023-02-15T02:46:17;23.20;;;10.00;;
22191;SDS011;11261;52.456;10.850;2023-02-15T02:48:50;23.55;;;11.40;;
22191;SDS011;11261;52.456;10.850;2023-02-15T02:51:20;18.00;;;8.20;;
22191;SDS011;11261;52.456;10.850;2023-02-15T02:53:50;22.90;;;10.73;;
22191;SDS011;11261;52.456;10.850;2023-02-15T02:56:23;19.65;;;9.73;;
22191;SDS011;11261;52.456;10.850;2023-02-15T02:58:57;19.73;;;10.53;;
22191;SDS011;11261;52.456;10.850;2023-02-15T03:01:32;17.23;;;9.20;;
22191;SDS011;11261;52.456;10.850;2023-02-15T03:04:08;17.97;;;10.13;;
22191;SDS011;11261;52.456;10.850;2023-02-15T03:06:40;16.63;;;7.87;;
22191;SDS011;11261;52.456;10.850;2023-02-15T03:09:15;17.40;;;8.40;;
22191;SDS011;11261;52.456;10.850;2023-02-15T03:11:47;20.53;;;9.80;;
22191;SDS011;11261;52.456;10.850;2023-02-15T03:14:17;19.23;;;9.53;;
22191;SDS011;11261;52.456;10.850;2023-02-15T03:16:46;20.33;;;9.93;;
22191;SDS011;11261;52.456;10.850;2023-02-15T03:19:17;21.33;;;9.50;;
22191;SDS011;11261;52.456;10.850;2023-02-15T03:21:51;23.40;;;9.73;;
22191;SDS011;11261;52.456;10.850;2023-02-15T03:24:31;20.52;;;9.73;;
22191;SDS011;11261;52.456;10.850;2023-02-15T03:27:02;19.10;;;9.73;;
22191;SDS011;11261;52.456;10.850;2023-02-15T03:29:34;19.23;;;10.17;;
22191;SDS011;11261;52.456;10.850;2023-02-15T03:32:03;18.90;;;9.57;;
22191;SDS011;11261;52.456;10.850;2023-02-15T03:34:36;18.10;;;9.43;;
22191;SDS011;11261;52.456;10.850;2023-02-15T03:37:05;19.17;;;9.33;;
22191;SDS011;11261;52.456;10.850;2023-02-15T03:39:39;19.67;;;9.83;;
22191;SDS011;11261;52.456;10.850;2023-02-15T03:42:13;17.30;;;8.97;;
22191;SDS011;11261;52.456;10.850;2023-02-15T03:44:47;17.43;;;8.73;;
22191;SDS011;11261;52.456;10.850;2023-02-15T03:47:20;18.40;;;8.13;;
22191;SDS011;11261;52.456;10.850;2023-02-15T03:49:54;20.20;;;9.47;;
22191;SDS011;11261;52.456;10.850;2023-02-15T03:52:26;16.77;;;7.63;;
22191;SDS011;11261;52.456;10.850;2023-02-15T03:54:56;19.20;;;9.90;;
22191;SDS011;11261;52.456;10.850;2023-02-15T03:57:25;16.10;;;8.67;;
22191;SDS011;11261;52.456;10.850;2023-02-15T04:00:13;18.13;;;9.57;;
22191;SDS011;11261;52.456;10.850;2023-02-15T04:03:18;17.03;;;8.67;;
22191;SDS011;11261;52.456;10.850;2023-02-15T04:05:52;14.53;;;7.10;;
22191;SDS011;11261;52.456;10.850;2023-02-15T04:08:20;15.23;;;8.07;;
22191;SDS011;11261;52.456;10.850;2023-02-15T04:11:09;16.30;;;7.53;;
22191;SDS011;11261;52.456;10.850;2023-02-15T04:13:36;14.13;;;6.97;;
22191;SDS011;11261;52.456;10.850;2023-02-15T04:16:05;17.07;;;8.20;;
22191;SDS011;11261;52.456;10.850;2023-02-15T04:18:34;23.13;;;10.47;;
22191;SDS011;11261;52.456;10.850;2023-02-15T04:21:23;21.20;;;9.43;;
22191;SDS011;11261;52.456;10.850;2023-02-15T04:24:11;16.30;;;7.17;;
22191;SDS011;11261;52.456;10.850;2023-02-15T04:26:57;17.93;;;8.33;;
22191;SDS011;11261;52.456;10.850;2023-02-15T04:29:26;18.10;;;8.57;;
22191;SDS011;11261;52.456;10.850;2023-02-15T04:31:55;16.47;;;7.87;;
22191;SDS011;11261;52.456;10.850;2023-02-15T04:34:26;15.37;;;7.13;;
22191;SDS011;11261;52.456;10.850;2023-02-15T04:36:55;17.57;;;8.50;;
22191;SDS011;11261;52.456;10.850;2023-02-15T04:39:24;17.67;;;8.27;;
22191;SDS011;11261;52.456;10.850;2023-02-15T04:41:52;19.97;;;8.90;;
22191;SDS011;11261;52.456;10.850;2023-02-15T04:44:20;21.40;;;10.37;;
22191;SDS011;11261;52.456;10.850;2023-02-15T04:46:48;20.63;;;10.77;;
22191;SDS011;11261;52.456;10.850;2023-02-15T04:49:16;17.30;;;8.77;;
22191;SDS011;11261;52.456;10.850;2023-02-15T04:51:45;20.97;;;8.63;;
22191;SDS011;11261;52.456;10.850;2023-02-15T04:54:14;15.63;;;8.10;;
22191;SDS011;11261;52.456;10.850;2023-02-15T04:56:42;25.07;;;10.47;;
22191;SDS011;11261;52.456;10.850;2023-02-15T04:59:11;17.83;;;9.67;;
22191;SDS011;11261;52.456;10.850;2023-02-15T05:01:39;19.07;;;9.23;;
22191;SDS011;11261;52.456;10.850;2023-02-15T05:04:08;17.23;;;9.47;;
22191;SDS011;11261;52.456;10.850;2023-02-15T05:06:36;21.00;;;10.67;;
22191;SDS011;11261;52.456;10.850;2023-02-15T05:09:04;18.80;;;9.47;;
22191;SDS011;11261;52.456;10.850;2023-02-15T05:11:34;23.47;;;10.30;;
22191;SDS011;11261;52.456;10.850;2023-02-15T05:14:02;18.87;;;8.57;;
22191;SDS011;11261;52.456;10.850;2023-02-15T05:16:30;17.93;;;9.30;;
22191;SDS011;11261;52.456;10.850;2023-02-15T05:18:59;23.53;;;9.83;;
22191;SDS011;11261;52.456;10.850;2023-02-15T05:21:28;17.37;;;9.60;;
22191;SDS011;11261;52.456;10.850;2023-02-15T05:23:56;25.27;;;10.97;;
22191;SDS011;11261;52.456;10.850;2023-02-15T05:26:24;27.17;;;11.47;;
22191;SDS011;11261;52.456;10.850;2023-02-15T05:29:11;19.57;;;10.33;;
22191;SDS011;11261;52.456;10.850;2023-02-15T05:31:40;23.07;;;9.47;;
22191;SDS011;11261;52.456;10.850;2023-02-15T05:34:10;22.77;;;9.47;;
22191;SDS011;11261;52.456;10.850;2023-02-15T05:36:38;18.80;;;9.17;;
22191;SDS011;11261;52.456;10.850;2023-02-15T05:39:07;19.33;;;9.57;;
22191;SDS011;11261;52.456;10.850;2023-02-15T05:41:35;23.00;;;9.83;;
22191;SDS011;11261;52.456;10.850;2023-02-15T05:44:03;19.73;;;9.87;;
22191;SDS011;11261;52.456;10.850;2023-02-15T05:46:33;18.10;;;8.83;;
22191;SDS011;11261;52.456;10.850;2023-02-15T05:49:01;22.90;;;10.60;;
22191;SDS011;11261;52.456;10.850;2023-02-15T05:51:29;18.33;;;9.40;;
22191;SDS011;11261;52.456;10.850;2023-02-15T05:53:57;25.30;;;11.00;;
22191;SDS011;11261;52.456;10.850;2023-02-15T05:56:25;21.73;;;10.37;;
22191;SDS011;11261;52.456;10.850;2023-02-15T05:58:53;19.37;;;9.77;;
22191;SDS011;11261;52.456;10.850;2023-02-15T06:01:22;20.00;;;9.53;;
22191;SDS011;11261;52.456;10.850;2023-02-15T06:03:52;18.93;;;9.20;;
22191;SDS011;11261;52.456;10.850;2023-02-15T06:06:21;18.97;;;8.50;;
22191;SDS011;11261;52.456;10.850;2023-02-15T06:08:49;19.80;;;9.70;;
22191;SDS011;11261;52.456;10.850;2023-02-15T06:11:17;22.27;;;10.33;;
22191;SDS011;11261;52.456;10.850;2023-02-15T06:13:46;20.33;;;8.83;;
22191;SDS011;11261;52.456;10.850;2023-02-15T06:16:14;22.40;;;10.97;;
22191;SDS011;11261;52.456;10.850;2023-02-15T06:18:42;24.27;;;11.37;;
22191;SDS011;11261;52.456;10.850;2023-02-15T06:21:12;21.60;;;10.37;;
22191;SDS011;11261;52.456;10.850;2023-02-15T06:23:40;18.73;;;9.53;;
22191;SDS011;11261;52.456;10.850;2023-02-15T06:26:09;22.43;;;11.17;;
22191;SDS011;11261;52.456;10.850;2023-02-15T06:28:37;20.23;;;9.47;;
22191;SDS011;11261;52.456;10.850;2023-02-15T06:31:07;17.70;;;8.07;;
22191;SDS011;11261;52.456;10.850;2023-02-15T06:33:35;17.17;;;8.77;;
22191;SDS011;11261;52.456;10.850;2023-02-15T06:36:04;23.97;;;10.87;;
22191;SDS011;11261;52.456;10.850;2023-02-15T06:38:34;22.80;;;10.67;;
22191;SDS011;11261;52.456;10.850;2023-02-15T06:41:02;21.37;;;9.83;;
22191;SDS011;11261;52.456;10.850;2023-02-15T06:43:30;19.23;;;9.20;;
22191;SDS011;11261;52.456;10.850;2023-02-15T06:46:00;22.30;;;10.97;;
22191;SDS011;11261;52.456;10.850;2023-02-15T06:48:29;22.20;;;9.83;;
22191;SDS011;11261;52.456;10.850;2023-02-15T06:50:57;25.77;;;11.57;;
22191;SDS011;11261;52.456;10.850;2023-02-15T06:53:25;20.83;;;9.93;;
22191;SDS011;11261;52.456;10.850;2023-02-15T06:56:01;22.87;;;11.40;;
22191;SDS011;11261;52.456;10.850;2023-02-15T06:58:32;23.77;;;11.37;;
22191;SDS011;11261;52.456;10.850;2023-02-15T07:01:01;21.97;;;11.57;;
22191;SDS011;11261;52.456;10.850;2023-02-15T07:03:30;22.47;;;10.23;;
22191;SDS011;11261;52.456;10.850;2023-02-15T07:05:59;22.23;;;10.20;;
22191;SDS011;11261;52.456;10.850;2023-02-15T07:08:29;19.57;;;9.13;;
22191;SDS011;11261;52.456;10.850;2023-02-15T07:10:57;18.57;;;9.73;;
22191;SDS011;11261;52.456;10.850;2023-02-15T07:13:47;21.63;;;10.83;;
22191;SDS011;11261;52.456;10.850;2023-02-15T07:16:14;21.53;;;10.37;;
22191;SDS011;11261;52.456;10.850;2023-02-15T07:18:42;21.73;;;10.50;;
22191;SDS011;11261;52.456;10.850;2023-02-15T07:21:11;21.03;;;9.20;;
22191;SDS011;11261;52.456;10.850;2023-02-15T07:23:39;22.97;;;11.40;;
22191;SDS011;11261;52.456;10.850;2023-02-15T07:26:07;21.07;;;10.77;;
22191;SDS011;11261;52.456;10.850;2023-02-15T07:28:36;19.40;;;11.07;;
22191;SDS011;11261;52.456;10.850;2023-02-15T07:31:05;18.23;;;9.17;;
22191;SDS011;11261;52.456;10.850;2023-02-15T07:33:34;16.70;;;8.67;;
22191;SDS011;11261;52.456;10.850;2023-02-15T07:36:03;22.33;;;10.47;;
22191;SDS011;11261;52.456;10.850;2023-02-15T07:38:33;20.67;;;10.20;;
22191;SDS011;11261;52.456;10.850;2023-02-15T07:41:03;21.67;;;10.70;;
22191;SDS011;11261;52.456;10.850;2023-02-15T07:43:33;19.03;;;9.30;;
22191;SDS011;11261;52.456;10.850;2023-02-15T07:46:02;27.63;;;11.17;;
22191;SDS011;11261;52.456;10.850;2023-02-15T07:48:35;21.93;;;10.47;;
22191;SDS011;11261;52.456;10.850;2023-02-15T07:51:06;19.40;;;10.03;;
22191;SDS011;11261;52.456;10.850;2023-02-15T07:53:36;21.80;;;11.07;;
22191;SDS011;11261;52.456;10.850;2023-02-15T07:56:06;22.57;;;9.67;;
22191;SDS011;11261;52.456;10.850;2023-02-15T07:58:36;21.10;;;10.57;;
22191;SDS011;11261;52.456;10.850;2023-02-15T08:01:22;24.03;;;10.57;;
22191;SDS011;11261;52.456;10.850;2023-02-15T08:03:53;23.00;;;12.03;;
22191;SDS011;11261;52.456;10.850;2023-02-15T08:06:25;19.00;;;10.47;;
22191;SDS011;11261;52.456;10.850;2023-02-15T08:08:55;21.27;;;10.70;;
22191;SDS011;11261;52.456;10.850;2023-02-15T08:11:24;18.03;;;9.57;;
22191;SDS011;11261;52.456;10.850;2023-02-15T08:13:56;17.57;;;8.30;;
22191;SDS011;11261;52.456;10.850;2023-02-15T08:16:27;18.80;;;9.87;;
22191;SDS011;11261;52.456;10.850;2023-02-15T08:18:59;16.63;;;7.67;;
22191;SDS011;11261;52.456;10.850;2023-02-15T08:21:29;21.90;;;10.33;;
22191;SDS011;11261;52.456;10.850;2023-02-15T08:23:57;19.73;;;8.60;;
22191;SDS011;11261;52.456;10.850;2023-02-15T08:26:26;17.60;;;9.97;;
22191;SDS011;11261;52.456;10.850;2023-02-15T08:28:57;19.43;;;8.27;;
22191;SDS011;11261;52.456;10.850;2023-02-15T08:31:26;18.20;;;9.27;;
22191;SDS011;11261;52.456;10.850;2023-02-15T08:33:55;17.70;;;9.33;;
22191;SDS011;11261;52.456;10.850;2023-02-15T08:36:25;23.30;;;11.20;;
22191;SDS011;11261;52.456;10.850;2023-02-15T08:38:55;19.55;;;10.15;;
22191;SDS011;11261;52.456;10.850;2023-02-15T08:41:25;21.17;;;10.70;;
22191;SDS011;11261;52.456;10.850;2023-02-15T08:43:56;18.73;;;10.57;;
22191;SDS011;11261;52.456;10.850;2023-02-15T08:46:26;19.70;;;9.77;;
22191;SDS011;11261;52.456;10.850;2023-02-15T08:48:56;18.30;;;9.00;;
22191;SDS011;11261;52.456;10.850;2023-02-15T08:51:26;16.40;;;7.97;;
22191;SDS011;11261;52.456;10.850;2023-02-15T08:53:56;18.13;;;9.80;;
22191;SDS011;11261;52.456;10.850;2023-02-15T08:56:26;20.35;;;11.35;;
22191;SDS011;11261;52.456;10.850;2023-02-15T08:58:56;21.77;;;11.47;;
22191;SDS011;11261;52.456;10.850;2023-02-15T09:01:25;24.75;;;12.68;;
22191;SDS011;11261;52.456;10.850;2023-02-15T09:03:55;23.83;;;12.35;;
22191;SDS011;11261;52.456;10.850;2023-02-15T09:06:26;19.73;;;9.98;;
22191;SDS011;11261;52.456;10.850;2023-02-15T09:08:56;20.00;;;10.88;;
22191;SDS011;11261;52.456;10.850;2023-02-15T09:11:25;15.95;;;8.38;;
22191;SDS011;11261;52.456;10.850;2023-02-15T09:13:55;16.85;;;9.95;;
22191;SDS011;11261;52.456;10.850;2023-02-15T09:16:25;20.55;;;10.10;;
22191;SDS011;11261;52.456;10.850;2023-02-15T09:18:56;17.50;;;9.55;;
22191;SDS011;11261;52.456;10.850;2023-02-15T09:21:26;16.30;;;9.07;;
22191;SDS011;11261;52.456;10.850;2023-02-15T09:23:56;15.32;;;8.70;;
22191;SDS011;11261;52.456;10.850;2023-02-15T09:26:26;15.43;;;8.68;;
22191;SDS011;11261;52.456;10.850;2023-02-15T09:28:56;16.08;;;8.90;;
22191;SDS011;11261;52.456;10.850;2023-02-15T09:31:28;18.58;;;9.82;;
22191;SDS011;11261;52.456;10.850;2023-02-15T09:33:58;18.15;;;9.13;;
22191;SDS011;11261;52.456;10.850;2023-02-15T09:36:31;19.38;;;10.07;;
22191;SDS011;11261;52.456;10.850;2023-02-15T09:39:03;19.40;;;10.13;;
22191;SDS011;11261;52.456;10.850;2023-02-15T09:44:37;18.88;;;9.02;;
22191;SDS011;11261;52.456;10.850;2023-02-15T09:47:20;18.55;;;10.18;;
22191;SDS011;11261;52.456;10.850;2023-02-15T09:50:05;15.82;;;9.48;;
22191;SDS011;11261;52.456;10.850;2023-02-15T09:52:43;14.23;;;8.25;;
22191;SDS011;11261;52.456;10.850;2023-02-15T09:55:28;16.65;;;9.10;;
22191;SDS011;11261;52.456;10.850;2023-02-15T09:58:11;21.08;;;10.90;;
22191;SDS011;11261;52.456;10.850;2023-02-15T10:00:48;19.60;;;10.68;;
22191;SDS011;11261;52.456;10.850;2023-02-15T10:03:30;18.00;;;10.80;;
22191;SDS011;11261;52.456;10.850;2023-02-15T10:06:14;17.58;;;9.77;;
22191;SDS011;11261;52.456;10.850;2023-02-15T10:09:05;17.85;;;9.25;;
22191;SDS011;11261;52.456;10.850;2023-02-15T10:11:44;16.58;;;9.55;;
22191;SDS011;11261;52.456;10.850;2023-02-15T10:14:26;16.55;;;9.30;;
22191;SDS011;11261;52.456;10.850;2023-02-15T10:17:19;14.95;;;9.30;;
22191;SDS011;11261;52.456;10.850;2023-02-15T10:19:57;18.70;;;10.55;;
22191;SDS011;11261;52.456;10.850;2023-02-15T10:22:38;21.75;;;10.40;;
22191;SDS011;11261;52.456;10.850;2023-02-15T10:25:19;15.90;;;10.18;;
22191;SDS011;11261;52.456;10.850;2023-02-15T10:28:00;19.88;;;10.18;;
22191;SDS011;11261;52.456;10.850;2023-02-15T10:30:36;19.60;;;11.20;;
22191;SDS011;11261;52.456;10.850;2023-02-15T10:33:12;25.85;;;11.88;;
22191;SDS011;11261;52.456;10.850;2023-02-15T10:35:48;20.95;;;11.82;;
22191;SDS011;11261;52.456;10.850;2023-02-15T10:38:24;21.08;;;12.05;;
22191;SDS011;11261;52.456;10.850;2023-02-15T10:41:04;17.05;;;9.82;;
22191;SDS011;11261;52.456;10.850;2023-02-15T10:43:42;18.85;;;10.93;;
22191;SDS011;11261;52.456;10.850;2023-02-15T10:46:32;15.45;;;9.43;;
22191;SDS011;11261;52.456;10.850;2023-02-15T10:49:29;14.00;;;7.95;;
22191;SDS011;11261;52.456;10.850;2023-02-15T10:52:19;14.57;;;8.48;;
22191;SDS011;11261;52.456;10.850;2023-02-15T10:54:59;14.52;;;8.98;;
22191;SDS011;11261;52.456;10.850;2023-02-15T10:57:40;13.80;;;8.38;;
22191;SDS011;11261;52.456;10.850;2023-02-15T11:00:19;14.85;;;8.13;;
22191;SDS011;11261;52.456;10.850;2023-02-15T11:03:04;13.60;;;8.40;;
22191;SDS011;11261;52.456;10.850;2023-02-15T11:05:45;16.17;;;9.25;;
22191;SDS011;11261;52.456;10.850;2023-02-15T11:08:21;14.40;;;8.40;;
22191;SDS011;11261;52.456;10.850;2023-02-15T11:10:52;16.45;;;8.85;;
22191;SDS011;11261;52.456;10.850;2023-02-15T11:13:29;13.65;;;7.97;;
22191;SDS011;11261;52.456;10.850;2023-02-15T11:16:02;16.90;;;9.05;;
22191;SDS011;11261;52.456;10.850;2023-02-15T11:18:33;15.13;;;8.38;;
22191;SDS011;11261;52.456;10.850;2023-02-15T11:21:07;14.73;;;8.73;;
22191;SDS011;11261;52.456;10.850;2023-02-15T11:23:40;19.60;;;11.52;;
22191;SDS011;11261;52.456;10.850;2023-02-15T11:26:13;16.55;;;9.43;;
22191;SDS011;11261;52.456;10.850;2023-02-15T11:28:47;16.48;;;8.65;;
22191;SDS011;11261;52.456;10.850;2023-02-15T11:31:20;16.35;;;8.52;;
22191;SDS011;11261;52.456;10.850;2023-02-15T11:33:51;14.35;;;9.20;;
22191;SDS011;11261;52.456;10.850;2023-02-15T11:36:24;17.38;;;9.85;;
22191;SDS011;11261;52.456;10.850;2023-02-15T11:38:56;13.05;;;7.97;;
22191;SDS011;11261;52.456;10.850;2023-02-15T11:41:31;16.42;;;9.70;;
22191;SDS011;11261;52.456;10.850;2023-02-15T11:44:04;15.57;;;9.23;;
22191;SDS011;11261;52.456;10.850;2023-02-15T11:46:38;15.77;;;8.90;;
22191;SDS011;11261;52.456;10.850;2023-02-15T11:49:09;18.20;;;9.63;;
22191;SDS011;11261;52.456;10.850;2023-02-15T11:51:49;18.20;;;10.43;;
22191;SDS011;11261;52.456;10.850;2023-02-15T11:54:19;17.02;;;9.95;;
22191;SDS011;11261;52.456;10.850;2023-02-15T11:56:52;15.13;;;8.95;;
22191;SDS011;11261;52.456;10.850;2023-02-15T11:59:24;14.85;;;9.00;;
22191;SDS011;11261;52.456;10.850;2023-02-15T12:01:57;15.18;;;10.00;;
22191;SDS011;11261;52.456;10.850;2023-02-15T12:04:26;19.77;;;10.80;;
22191;SDS011;11261;52.456;10.850;2023-02-15T12:06:58;15.80;;;9.77;;
22191;SDS011;11261;52.456;10.850;2023-02-15T12:09:31;16.02;;;9.05;;
22191;SDS011;11261;52.456;10.850;2023-02-15T12:12:23;17.80;;;10.77;;
22191;SDS011;11261;52.456;10.850;2023-02-15T12:14:54;15.50;;;10.23;;
22191;SDS011;11261;52.456;10.850;2023-02-15T12:17:24;18.13;;;10.68;;
22191;SDS011;11261;52.456;10.850;2023-02-15T12:19:55;16.35;;;9.40;;
22191;SDS011;11261;52.456;10.850;2023-02-15T12:22:27;15.82;;;10.10;;
22191;SDS011;11261;52.456;10.850;2023-02-15T12:24:58;16.02;;;9.85;;
22191;SDS011;11261;52.456;10.850;2023-02-15T12:27:29;16.63;;;10.35;;
22191;SDS011;11261;52.456;10.850;2023-02-15T12:30:01;14.55;;;8.88;;
22191;SDS011;11261;52.456;10.850;2023-02-15T12:32:34;15.30;;;9.27;;
22191;SDS011;11261;52.456;10.850;2023-02-15T12:35:14;14.48;;;9.23;;
22191;SDS011;11261;52.456;10.850;2023-02-15T12:37:52;16.77;;;9.82;;
22191;SDS011;11261;52.456;10.850;2023-02-15T12:40:23;15.45;;;9.13;;
22191;SDS011;11261;52.456;10.850;2023-02-15T12:42:56;18.00;;;9.63;;
22191;SDS011;11261;52.456;10.850;2023-02-15T12:45:27;14.95;;;8.93;;
22191;SDS011;11261;52.456;10.850;2023-02-15T12:48:09;15.52;;;8.27;;
22191;SDS011;11261;52.456;10.850;2023-02-15T12:50:42;15.30;;;8.93;;
22191;SDS011;11261;52.456;10.850;2023-02-15T12:53:13;17.65;;;9.32;;
22191;SDS011;11261;52.456;10.850;2023-02-15T12:55:52;15.65;;;8.73;;
22191;SDS011;11261;52.456;10.850;2023-02-15T12:58:22;15.68;;;8.05;;
22191;SDS011;11261;52.456;10.850;2023-02-15T13:01:09;17.92;;;7.47;;
22191;SDS011;11261;52.456;10.850;2023-02-15T13:03:49;13.38;;;6.88;;
22191;SDS011;11261;52.456;10.850;2023-02-15T13:06:23;12.82;;;7.65;;
22191;SDS011;11261;52.456;10.850;2023-02-15T13:08:53;14.00;;;7.75;;
22191;SDS011;11261;52.456;10.850;2023-02-15T13:11:25;12.50;;;7.13;;
22191;SDS011;11261;52.456;10.850;2023-02-15T13:14:01;11.05;;;7.07;;
22191;SDS011;11261;52.456;10.850;2023-02-15T13:16:33;11.43;;;6.45;;
22191;SDS011;11261;52.456;10.850;2023-02-15T13:19:06;11.15;;;6.43;;
22191;SDS011;11261;52.456;10.850;2023-02-15T13:21:40;18.58;;;6.78;;
22191;SDS011;11261;52.456;10.850;2023-02-15T13:24:15;10.70;;;6.50;;
22191;SDS011;11261;52.456;10.850;2023-02-15T13:26:48;9.75;;;6.10;;
22191;SDS011;11261;52.456;10.850;2023-02-15T13:29:18;13.82;;;7.88;;
22191;SDS011;11261;52.456;10.850;2023-02-15T13:31:52;14.35;;;8.50;;
22191;SDS011;11261;52.456;10.850;2023-02-15T13:34:22;10.70;;;7.18;;
22191;SDS011;11261;52.456;10.850;2023-02-15T13:36:54;13.02;;;7.57;;
22191;SDS011;11261;52.456;10.850;2023-02-15T13:39:30;13.73;;;7.85;;
22191;SDS011;11261;52.456;10.850;2023-02-15T13:42:12;12.80;;;8.32;;
22191;SDS011;11261;52.456;10.850;2023-02-15T13:44:54;5.22;;;2.90;;
22191;SDS011;11261;52.456;10.850;2023-02-15T13:47:36;8.82;;;3.67;;
22191;SDS011;11261;52.456;10.850;2023-02-15T13:50:19;6.03;;;3.92;;
22191;SDS011;11261;52.456;10.850;2023-02-15T13:53:02;8.27;;;4.68;;
22191;SDS011;11261;52.456;10.850;2023-02-15T13:55:49;7.72;;;4.22;;
22191;SDS011;11261;52.456;10.850;2023-02-15T14:01:22;10.85;;;5.22;;
22191;SDS011;11261;52.456;10.850;2023-02-15T14:04:01;9.07;;;4.88;;
22191;SDS011;11261;52.456;10.850;2023-02-15T14:10:00;9.23;;;4.63;;
22191;SDS011;11261;52.456;10.850;2023-02-15T14:12:47;11.57;;;5.00;;
22191;SDS011;11261;52.456;10.850;2023-02-15T14:15:29;11.25;;;5.70;;
22191;SDS011;11261;52.456;10.850;2023-02-15T14:18:10;9.93;;;5.65;;
22191;SDS011;11261;52.456;10.850;2023-02-15T14:20:57;9.05;;;5.93;;
22191;SDS011;11261;52.456;10.850;2023-02-15T14:23:38;9.43;;;4.68;;
22191;SDS011;11261;52.456;10.850;2023-02-15T14:26:18;9.18;;;5.03;;
22191;SDS011;11261;52.456;10.850;2023-02-15T14:28:54;11.30;;;5.47;;
22191;SDS011;11261;52.456;10.850;2023-02-15T14:31:30;12.73;;;5.97;;
22191;SDS011;11261;52.456;10.850;2023-02-15T14:34:02;11.50;;;5.57;;
22191;SDS011;11261;52.456;10.850;2023-02-15T14:36:34;8.65;;;5.00;;
22191;SDS011;11261;52.456;10.850;2023-02-15T14:39:06;8.65;;;4.90;;
22191;SDS011;11261;52.456;10.850;2023-02-15T14:42:07;8.05;;;3.88;;
22191;SDS011;11261;52.456;10.850;2023-02-15T14:44:45;9.32;;;5.25;;
22191;SDS011;11261;52.456;10.850;2023-02-15T14:47:18;10.55;;;4.85;;
22191;SDS011;11261;52.456;10.850;2023-02-15T14:49:54;8.38;;;4.55;;
22191;SDS011;11261;52.456;10.850;2023-02-15T14:52:23;11.70;;;5.88;;
22191;SDS011;11261;52.456;10.850;2023-02-15T14:54:55;11.15;;;5.68;;
22191;SDS011;11261;52.456;10.850;2023-02-15T14:57:29;11.73;;;5.75;;
22191;SDS011;11261;52.456;10.850;2023-02-15T15:03:01;9.70;;;5.40;;
22191;SDS011;11261;52.456;10.850;2023-02-15T15:05:37;9.88;;;4.55;;
22191;SDS011;11261;52.456;10.850;2023-02-15T15:08:25;10.20;;;4.93;;
22191;SDS011;11261;52.456;10.850;2023-02-15T15:14:10;6.95;;;4.18;;
22191;SDS011;11261;52.456;10.850;2023-02-15T15:16:59;8.55;;;4.93;;
22191;SDS011;11261;52.456;10.850;2023-02-15T15:22:25;8.52;;;4.88;;